Time;durP1;ratioP1;P1;durP2;ratioP2;P2;SDS_P1;SDS_P2;PMS_P1;PMS_P2;Temp;Humidity;BMP_temperature;BMP_pressure;BME280_temperature;BME280_humidity;BME280_pressure;Samples;Min_cycle;Max_cycle;Signal;HPM_P1;HPM_P2
2022/05/08 00:00:40;;;;;;;8.10;5.80;;;16.80;69.20;;;;;;5080758;28;20281;-83
2022/05/08 00:03:05;;;;;;;6.15;5.65;;;16.80;68.60;;;;;;5077170;28;20209;-84
2022/05/08 00:05:31;;;;;;;5.83;5.33;;;16.80;68.90;;;;;;5096132;28;20251;-84
2022/05/08 00:07:56;;;;;;;6.27;5.77;;;16.70;68.90;;;;;;5089252;28;20450;-83
2022/05/08 00:10:22;;;;;;;5.77;5.27;;;16.60;69.30;;;;;;5092944;28;20220;-84
2022/05/08 00:12:48;;;;;;;5.83;5.23;;;16.70;69.00;;;;;;5087725;28;20198;-84
2022/05/08 00:15:14;;;;;;;5.80;5.30;;;16.60;69.30;;;;;;5079301;28;20212;-84
2022/05/08 00:17:39;;;;;;;5.67;5.20;;;16.60;69.20;;;;;;5067177;28;20206;-84
2022/05/08 00:20:07;;;;;;;6.27;5.40;;;16.50;69.20;;;;;;5091606;28;20196;-84
2022/05/08 00:22:33;;;;;;;6.30;5.80;;;16.50;69.40;;;;;;5078581;28;20688;-83
2022/05/08 00:25:02;;;;;;;6.80;6.10;;;16.50;69.50;;;;;;5072609;28;20219;-83
2022/05/08 00:27:29;;;;;;;6.33;5.70;;;16.40;69.40;;;;;;5077742;28;20193;-83
2022/05/08 00:29:54;;;;;;;6.97;6.17;;;16.40;69.60;;;;;;5082992;28;20278;-84
2022/05/08 00:32:21;;;;;;;6.03;5.43;;;16.20;70.20;;;;;;5071957;28;20195;-83
2022/05/08 00:34:47;;;;;;;6.00;5.40;;;16.00;71.50;;;;;;5084029;28;20306;-83
2022/05/08 00:37:13;;;;;;;5.93;5.43;;;16.00;72.10;;;;;;5076742;28;20192;-84
2022/05/08 00:39:38;;;;;;;5.93;5.50;;;15.80;72.60;;;;;;5077533;28;20195;-84
2022/05/08 00:42:04;;;;;;;5.87;5.37;;;15.80;73.20;;;;;;5086473;28;20215;-83
2022/05/08 00:44:30;;;;;;;6.40;5.80;;;15.80;72.20;;;;;;5086707;28;20891;-83
2022/05/08 00:46:56;;;;;;;6.00;5.40;;;15.80;72.40;;;;;;5094892;28;20182;-83
2022/05/08 00:49:21;;;;;;;6.23;5.70;;;15.90;72.00;;;;;;5081953;28;20188;-83
2022/05/08 00:51:49;;;;;;;6.50;5.90;;;15.90;71.90;;;;;;5082525;28;20185;-83
2022/05/08 00:54:15;;;;;;;6.10;5.60;;;15.90;72.50;;;;;;5091499;28;20211;-84
2022/05/08 00:56:42;;;;;;;7.20;6.50;;;15.90;71.70;;;;;;5086169;28;20411;-83
2022/05/08 00:59:09;;;;;;;6.73;6.13;;;15.90;71.40;;;;;;5084459;28;20194;-84
2022/05/08 01:01:35;;;;;;;7.00;6.33;;;16.00;71.10;;;;;;5078034;28;20228;-84
2022/05/08 01:04:01;;;;;;;6.20;5.70;;;16.00;70.60;;;;;;5087273;28;20182;-84
2022/05/08 01:06:28;;;;;;;7.23;6.63;;;16.00;70.50;;;;;;5082473;28;20207;-84
2022/05/08 01:08:54;;;;;;;6.43;5.90;;;16.00;70.90;;;;;;5066649;28;20181;-84
2022/05/08 01:11:20;;;;;;;6.30;5.70;;;16.00;71.00;;;;;;5084408;28;20264;-84
2022/05/08 01:13:47;;;;;;;7.03;6.37;;;16.00;70.90;;;;;;5077987;28;20191;-83
2022/05/08 01:16:17;;;;;;;6.57;5.97;;;16.00;70.30;;;;;;5079058;28;20203;-84
2022/05/08 01:18:44;;;;;;;6.80;6.20;;;15.80;71.00;;;;;;5084834;28;20194;-83
2022/05/08 01:21:14;;;;;;;6.77;6.10;;;15.80;71.30;;;;;;5075954;28;20425;-84
2022/05/08 01:23:40;;;;;;;6.47;5.87;;;15.70;71.40;;;;;;5074452;28;20253;-84
2022/05/08 01:26:06;;;;;;;7.23;6.53;;;15.80;71.40;;;;;;5083297;28;20204;-84
2022/05/08 01:28:32;;;;;;;6.10;5.60;;;15.70;71.40;;;;;;5067224;28;20190;-83
2022/05/08 01:30:58;;;;;;;6.30;5.80;;;15.70;71.60;;;;;;5075577;28;20185;-83
2022/05/08 01:33:25;;;;;;;7.53;6.03;;;15.70;71.20;;;;;;5058490;28;20187;-84
2022/05/08 01:35:51;;;;;;;6.50;5.90;;;15.80;71.10;;;;;;5085332;28;20243;-84
2022/05/08 01:38:20;;;;;;;5.93;5.43;;;15.70;71.20;;;;;;5076850;28;20219;-83
2022/05/08 01:40:46;;;;;;;7.00;6.40;;;15.80;71.20;;;;;;5085417;28;20255;-84
2022/05/08 01:43:12;;;;;;;6.77;6.17;;;15.50;72.00;;;;;;5085981;28;20297;-84
2022/05/08 01:45:39;;;;;;;6.27;5.70;;;15.60;72.00;;;;;;5077971;28;20204;-83
2022/05/08 01:48:25;;;;;;;6.27;5.77;;;15.60;71.50;;;;;;5056587;28;20644;-84
2022/05/08 01:50:56;;;;;;;5.93;5.53;;;15.60;71.10;;;;;;5082333;28;20684;-84
2022/05/08 01:53:24;;;;;;;6.23;5.63;;;15.60;70.80;;;;;;5083298;28;20257;-84
2022/05/08 01:55:53;;;;;;;5.77;5.27;;;15.60;70.60;;;;;;5082772;28;20226;-83
2022/05/08 01:58:19;;;;;;;6.60;6.00;;;15.60;70.10;;;;;;5079918;28;20192;-84
2022/05/08 02:00:46;;;;;;;7.57;6.30;;;15.60;69.90;;;;;;5067475;28;20195;-84
2022/05/08 02:03:12;;;;;;;6.30;5.70;;;15.50;70.90;;;;;;5080515;28;20217;-83
2022/05/08 02:05:42;;;;;;;6.70;6.20;;;15.50;70.90;;;;;;5085217;28;20214;-83
2022/05/08 02:08:09;;;;;;;6.00;5.60;;;15.40;71.40;;;;;;5095250;28;20242;-83
2022/05/08 02:10:35;;;;;;;6.47;5.90;;;15.50;70.70;;;;;;5084781;28;20200;-84
2022/05/08 02:13:01;;;;;;;6.23;5.70;;;15.40;70.20;;;;;;5081557;28;20186;-84
2022/05/08 02:15:29;;;;;;;8.60;6.63;;;15.40;70.20;;;;;;5080531;28;20210;-84
2022/05/08 02:17:59;;;;;;;7.50;6.83;;;15.40;70.10;;;;;;5083294;28;20205;-83
2022/05/08 02:20:25;;;;;;;7.07;6.47;;;15.30;70.70;;;;;;5092512;28;20187;-83
2022/05/08 02:22:51;;;;;;;7.40;6.80;;;15.20;71.50;;;;;;5078662;28;20555;-83
2022/05/08 02:25:17;;;;;;;7.67;7.07;;;15.20;72.70;;;;;;5075430;28;20261;-83
2022/05/08 02:27:46;;;;;;;6.97;6.27;;;15.20;71.70;;;;;;5081850;28;20190;-84
2022/05/08 02:30:12;;;;;;;6.30;5.77;;;15.10;71.50;;;;;;5091870;28;20206;-83
2022/05/08 02:32:39;;;;;;;6.80;6.20;;;15.10;71.40;;;;;;5085269;28;20656;-83
2022/05/08 02:35:06;;;;;;;6.67;6.00;;;15.20;71.10;;;;;;5085737;28;20833;-83
2022/05/08 02:37:33;;;;;;;7.40;6.70;;;15.10;71.50;;;;;;5087716;28;20629;-83
2022/05/08 02:39:59;;;;;;;7.50;6.80;;;14.90;72.10;;;;;;5089192;28;20278;-83
2022/05/08 02:42:26;;;;;;;8.37;7.00;;;14.90;72.20;;;;;;5088631;28;20202;-83
2022/05/08 02:44:51;;;;;;;7.60;7.00;;;14.90;72.20;;;;;;5084724;28;20210;-84
2022/05/08 02:47:17;;;;;;;6.20;5.70;;;14.90;72.20;;;;;;5077720;28;20184;-83
2022/05/08 02:49:43;;;;;;;6.57;5.97;;;14.90;72.50;;;;;;5089649;28;20187;-84
2022/05/08 02:52:09;;;;;;;6.17;5.67;;;14.90;72.00;;;;;;5080323;28;20407;-84
2022/05/08 02:54:34;;;;;;;7.03;6.40;;;14.90;71.70;;;;;;5098118;28;20227;-83
2022/05/08 02:59:44;;;;;;;6.27;5.77;;;14.80;72.30;;;;;;5089911;28;20613;-84
2022/05/08 03:02:10;;;;;;;6.17;5.73;;;14.80;72.50;;;;;;5085300;28;20206;-84
2022/05/08 03:04:36;;;;;;;7.13;6.43;;;14.80;72.30;;;;;;5087393;28;20197;-83
2022/05/08 03:07:02;;;;;;;6.47;5.87;;;14.80;72.90;;;;;;5094341;28;20178;-83
2022/05/08 03:09:28;;;;;;;6.43;5.93;;;14.70;71.90;;;;;;5060908;28;20186;-83
2022/05/08 03:11:54;;;;;;;7.63;5.80;;;14.50;73.00;;;;;;5066564;28;20658;-83
2022/05/08 03:14:24;;;;;;;5.93;5.37;;;14.30;74.20;;;;;;5081517;28;20212;-83
2022/05/08 03:16:49;;;;;;;6.40;5.90;;;14.30;74.00;;;;;;5085874;28;20219;-83
2022/05/08 03:19:16;;;;;;;6.30;5.70;;;14.30;73.60;;;;;;5090430;28;20203;-84
2022/05/08 03:21:41;;;;;;;6.17;5.67;;;14.30;73.50;;;;;;5074618;28;20393;-83
2022/05/08 03:24:08;;;;;;;7.10;6.00;;;14.30;73.40;;;;;;5056752;28;20190;-83
2022/05/08 03:26:34;;;;;;;7.00;6.00;;;14.40;73.40;;;;;;5090874;28;20263;-84
2022/05/08 03:29:00;;;;;;;6.03;5.47;;;14.40;72.90;;;;;;5073958;28;20195;-83
2022/05/08 03:31:25;;;;;;;6.17;5.50;;;14.40;73.10;;;;;;5075339;28;20191;-83
2022/05/08 03:33:51;;;;;;;6.03;5.43;;;14.40;73.20;;;;;;5080402;28;20197;-83
2022/05/08 03:36:17;;;;;;;6.93;5.43;;;14.40;72.90;;;;;;5074237;28;20976;-83
2022/05/08 03:38:44;;;;;;;6.17;5.67;;;14.40;72.80;;;;;;5082556;28;20577;-83
2022/05/08 03:41:15;;;;;;;6.17;5.67;;;14.30;72.40;;;;;;5081462;28;20188;-83
2022/05/08 03:43:42;;;;;;;5.50;5.07;;;14.30;72.70;;;;;;5075949;28;20203;-83
2022/05/08 03:46:07;;;;;;;5.63;5.23;;;14.20;73.20;;;;;;5075660;28;20196;-83
2022/05/08 03:48:35;;;;;;;5.73;5.33;;;14.20;73.30;;;;;;5077188;28;20243;-83
2022/05/08 03:51:01;;;;;;;5.73;5.33;;;14.30;73.00;;;;;;5058890;28;20198;-84
2022/05/08 03:53:27;;;;;;;5.50;5.00;;;14.20;72.80;;;;;;5076697;28;20251;-83
2022/05/08 03:55:53;;;;;;;5.80;5.30;;;14.10;72.90;;;;;;5079027;28;20213;-83
2022/05/08 03:58:18;;;;;;;9.97;6.17;;;14.00;73.80;;;;;;5066120;28;20675;-83
2022/05/08 04:00:44;;;;;;;5.63;5.23;;;14.00;73.30;;;;;;5076659;28;20192;-84
2022/05/08 04:03:10;;;;;;;5.80;5.30;;;13.90;73.20;;;;;;5077986;28;20214;-83
2022/05/08 04:05:36;;;;;;;5.60;5.10;;;13.80;74.20;;;;;;5083581;28;20202;-83
2022/05/08 04:08:01;;;;;;;5.73;5.23;;;13.80;73.90;;;;;;5081639;28;20175;-83
2022/05/08 04:10:27;;;;;;;5.87;5.33;;;13.80;74.20;;;;;;5077843;28;20207;-84
2022/05/08 04:12:53;;;;;;;5.43;5.03;;;13.90;74.70;;;;;;5081514;28;20207;-83
2022/05/08 04:18:03;;;;;;;5.60;5.10;;;13.80;74.40;;;;;;5090583;28;20261;-83
2022/05/08 04:20:28;;;;;;;6.47;5.27;;;13.80;74.70;;;;;;5076336;28;20247;-83
2022/05/08 04:25:39;;;;;;;6.10;5.57;;;13.80;74.30;;;;;;5087124;28;20801;-83
2022/05/08 04:28:05;;;;;;;5.43;4.97;;;13.90;74.40;;;;;;5071424;28;20244;-83
2022/05/08 04:30:30;;;;;;;6.00;5.40;;;13.90;74.50;;;;;;5058744;28;20261;-83
2022/05/08 04:32:56;;;;;;;5.67;5.23;;;13.90;73.90;;;;;;5071454;28;20187;-83
2022/05/08 04:35:22;;;;;;;7.10;5.13;;;13.80;73.50;;;;;;5085874;28;20227;-84
2022/05/08 04:37:47;;;;;;;5.60;5.20;;;13.80;75.30;;;;;;5086089;28;20213;-83
2022/05/08 04:40:13;;;;;;;5.27;4.87;;;13.80;74.40;;;;;;5083880;28;20234;-83
2022/05/08 04:42:39;;;;;;;6.00;5.50;;;13.80;74.90;;;;;;5075746;28;20221;-83
2022/05/08 04:45:06;;;;;;;5.90;5.50;;;13.70;75.70;;;;;;5079780;28;20212;-84
2022/05/08 04:47:31;;;;;;;6.37;5.80;;;13.50;77.00;;;;;;5085815;28;20240;-83
2022/05/08 04:49:57;;;;;;;5.77;5.17;;;13.40;78.40;;;;;;5092316;28;20710;-83
2022/05/08 04:52:22;;;;;;;6.63;5.17;;;13.50;77.90;;;;;;5080750;28;20191;-83
2022/05/08 04:54:48;;;;;;;6.23;5.53;;;13.60;77.50;;;;;;5084324;28;20209;-83
2022/05/08 04:57:14;;;;;;;5.53;5.03;;;13.60;77.30;;;;;;5059358;28;20232;-84
2022/05/08 04:59:40;;;;;;;5.83;5.33;;;13.70;77.30;;;;;;5076911;28;20211;-83
2022/05/08 05:02:08;;;;;;;5.83;5.23;;;13.80;76.70;;;;;;5083813;28;20211;-83
2022/05/08 05:04:36;;;;;;;6.50;5.90;;;13.80;76.30;;;;;;5089418;28;20179;-83
2022/05/08 05:07:02;;;;;;;6.10;5.50;;;13.90;77.10;;;;;;5071640;28;20643;-83
2022/05/08 05:09:28;;;;;;;6.83;6.17;;;13.90;77.00;;;;;;5078298;28;20200;-83
2022/05/08 05:11:54;;;;;;;6.40;5.80;;;14.00;76.70;;;;;;5087104;28;20184;-83
2022/05/08 05:14:20;;;;;;;7.70;5.87;;;14.00;76.90;;;;;;5079320;28;20203;-83
2022/05/08 05:16:46;;;;;;;5.90;5.40;;;14.10;77.20;;;;;;5060229;28;20693;-83
2022/05/08 05:19:12;;;;;;;6.60;6.00;;;14.10;77.10;;;;;;5064161;28;20211;-83
2022/05/08 05:21:38;;;;;;;6.93;6.33;;;14.20;77.20;;;;;;5060917;28;20191;-83
2022/05/08 05:24:04;;;;;;;6.40;5.80;;;14.20;77.10;;;;;;5078901;28;20197;-83
2022/05/08 05:26:30;;;;;;;6.63;6.13;;;14.10;77.80;;;;;;5070949;28;20238;-83
2022/05/08 05:28:56;;;;;;;7.20;6.60;;;14.10;78.50;;;;;;5070698;28;20199;-83
2022/05/08 05:31:21;;;;;;;6.57;6.07;;;14.20;78.30;;;;;;5076877;28;20212;-84
2022/05/08 05:33:47;;;;;;;6.43;5.93;;;14.10;78.20;;;;;;5074007;28;20201;-83
2022/05/08 05:36:13;;;;;;;7.03;6.40;;;14.10;77.90;;;;;;5079057;28;20241;-84
2022/05/08 05:38:39;;;;;;;7.47;6.87;;;14.20;78.30;;;;;;5079211;28;20421;-84
2022/05/08 05:41:05;;;;;;;8.23;7.17;;;14.20;77.70;;;;;;5083396;28;20199;-84
2022/05/08 05:43:32;;;;;;;7.37;6.67;;;14.20;78.40;;;;;;5084086;28;20219;-83
2022/05/08 05:48:42;;;;;;;7.17;6.67;;;14.10;80.20;;;;;;5083159;28;20245;-83
2022/05/08 05:51:08;;;;;;;8.53;7.67;;;14.10;80.50;;;;;;5096817;28;20185;-83
2022/05/08 05:53:34;;;;;;;7.77;7.00;;;14.10;80.80;;;;;;5082179;28;20209;-84
2022/05/08 05:56:00;;;;;;;8.50;7.77;;;14.20;80.60;;;;;;5090404;28;20218;-83
2022/05/08 05:58:26;;;;;;;8.33;7.37;;;14.20;80.60;;;;;;5083023;28;20280;-84
2022/05/08 06:00:52;;;;;;;8.57;7.87;;;14.10;81.20;;;;;;5088602;28;20295;-84
2022/05/08 06:03:18;;;;;;;8.07;7.47;;;14.10;81.70;;;;;;5068089;28;20221;-84
2022/05/08 06:05:43;;;;;;;8.70;7.90;;;14.10;82.60;;;;;;5094289;28;20205;-84
2022/05/08 06:08:09;;;;;;;8.50;7.70;;;14.10;82.60;;;;;;5076748;28;20192;-84
2022/05/08 06:10:36;;;;;;;10.33;8.67;;;14.10;83.20;;;;;;5078981;28;20190;-84
2022/05/08 06:13:02;;;;;;;9.07;8.37;;;14.20;82.60;;;;;;5070454;28;20188;-84
2022/05/08 06:15:28;;;;;;;8.80;8.00;;;14.30;82.30;;;;;;5060136;28;20219;-84
2022/05/08 06:17:55;;;;;;;10.40;9.57;;;14.40;81.80;;;;;;5083889;28;20257;-83
2022/05/08 06:20:21;;;;;;;10.43;9.63;;;14.60;81.60;;;;;;5062361;28;20254;-83
2022/05/08 06:22:46;;;;;;;9.50;8.70;;;14.60;81.20;;;;;;5082542;28;20209;-85
2022/05/08 06:25:12;;;;;;;9.87;9.07;;;14.60;81.80;;;;;;5078889;28;20214;-85
2022/05/08 06:27:38;;;;;;;9.07;8.37;;;14.70;81.30;;;;;;5073575;28;20192;-84
2022/05/08 06:30:05;;;;;;;9.47;8.50;;;14.80;80.70;;;;;;5077831;28;20642;-85
2022/05/08 06:32:31;;;;;;;8.33;7.73;;;14.90;80.30;;;;;;5073293;28;20837;-85
2022/05/08 06:34:57;;;;;;;11.50;8.20;;;15.00;79.90;;;;;;5055560;28;20215;-86
2022/05/08 06:37:22;;;;;;;8.43;7.73;;;15.10;78.10;;;;;;5072706;28;20188;-85
2022/05/08 06:39:48;;;;;;;8.10;7.50;;;15.10;78.60;;;;;;5081459;28;20202;-85
2022/05/08 06:42:14;;;;;;;8.60;7.80;;;15.30;76.70;;;;;;5087927;28;20210;-85
2022/05/08 06:44:40;;;;;;;9.53;8.63;;;15.40;76.00;;;;;;5066113;28;20708;-85
2022/05/08 06:47:05;;;;;;;7.83;7.27;;;15.40;76.00;;;;;;5090854;28;20187;-85
2022/05/08 06:49:31;;;;;;;8.83;7.67;;;15.50;76.20;;;;;;5063019;28;20245;-84
2022/05/08 06:51:57;;;;;;;7.07;6.47;;;15.50;74.30;;;;;;5057591;28;20646;-86
2022/05/08 06:54:23;;;;;;;8.27;7.67;;;15.60;74.60;;;;;;5072846;28;20244;-85
2022/05/08 06:56:49;;;;;;;8.80;8.10;;;15.70;74.70;;;;;;5072798;28;20227;-86
2022/05/08 07:01:59;;;;;;;9.30;8.43;;;15.80;74.80;;;;;;5054265;28;20314;-86
2022/05/08 07:04:25;;;;;;;9.10;8.30;;;15.90;75.30;;;;;;5046319;28;20216;-86
2022/05/08 07:06:51;;;;;;;9.13;8.27;;;15.90;74.40;;;;;;5074273;28;20387;-86
2022/05/08 07:09:17;;;;;;;9.30;8.47;;;16.00;75.20;;;;;;5085874;28;20835;-86
2022/05/08 07:11:47;;;;;;;9.00;8.20;;;16.10;74.30;;;;;;5075911;28;20217;-87
2022/05/08 07:14:14;;;;;;;9.53;8.53;;;16.00;73.00;;;;;;5078302;28;20324;-85
2022/05/08 07:16:40;;;;;;;8.77;8.03;;;16.00;73.80;;;;;;5074212;28;20207;-84
2022/05/08 07:19:05;;;;;;;8.90;8.10;;;16.10;74.30;;;;;;5086578;28;20215;-84
2022/05/08 07:21:31;;;;;;;9.77;8.97;;;16.20;74.20;;;;;;5080217;28;20623;-82
2022/05/08 07:23:57;;;;;;;9.47;8.50;;;16.30;73.50;;;;;;5105360;28;20188;-82
2022/05/08 07:26:22;;;;;;;10.00;9.07;;;16.40;73.60;;;;;;5077240;28;20918;-84
2022/05/08 07:28:48;;;;;;;8.57;7.77;;;16.50;73.40;;;;;;5075121;28;20187;-85
2022/05/08 07:31:14;;;;;;;15.60;8.50;;;16.50;73.40;;;;;;5073858;28;20329;-84
2022/05/08 07:33:40;;;;;;;8.20;7.50;;;16.50;72.40;;;;;;5075012;28;20640;-85
2022/05/08 07:36:12;;;;;;;7.37;6.67;;;16.50;72.20;;;;;;5082005;28;20235;-84
2022/05/08 07:38:43;;;;;;;7.17;6.47;;;16.50;70.80;;;;;;5075652;28;20272;-84
2022/05/08 07:41:10;;;;;;;7.33;6.63;;;16.60;71.10;;;;;;5090989;28;20196;-83
2022/05/08 07:43:37;;;;;;;8.00;7.40;;;16.80;69.50;;;;;;5063265;28;20224;-82
2022/05/08 07:46:03;;;;;;;7.70;6.97;;;16.80;70.20;;;;;;5080078;28;20199;-83
2022/05/08 07:48:29;;;;;;;8.23;7.43;;;16.90;69.80;;;;;;5083424;28;20192;-83
2022/05/08 07:50:57;;;;;;;6.93;6.43;;;17.10;68.00;;;;;;5089099;28;20187;-83
2022/05/08 07:53:23;;;;;;;7.13;6.33;;;17.30;67.20;;;;;;5088238;28;20244;-83
2022/05/08 07:55:52;;;;;;;8.10;6.77;;;17.50;66.40;;;;;;5080455;28;20219;-84
2022/05/08 07:58:21;;;;;;;7.13;6.43;;;17.40;64.90;;;;;;5079738;28;20861;-84
2022/05/08 08:00:49;;;;;;;7.07;6.30;;;17.40;65.80;;;;;;5083290;28;20659;-84
2022/05/08 08:03:16;;;;;;;6.87;6.27;;;17.50;66.00;;;;;;5083936;28;20244;-84
2022/05/08 08:05:43;;;;;;;6.77;6.07;;;17.60;65.60;;;;;;5059236;28;20211;-84
2022/05/08 08:08:09;;;;;;;6.73;6.00;;;17.70;65.00;;;;;;5076024;28;20207;-83
2022/05/08 08:10:35;;;;;;;6.97;6.37;;;17.70;65.00;;;;;;5085146;28;20268;-84
2022/05/08 08:13:01;;;;;;;7.10;6.40;;;17.80;64.70;;;;;;5087187;28;20232;-84
2022/05/08 08:15:26;;;;;;;7.03;6.33;;;17.80;64.90;;;;;;5085171;28;20212;-85
2022/05/08 08:17:52;;;;;;;7.97;6.90;;;17.90;65.20;;;;;;5080864;28;20665;-85
2022/05/08 08:20:18;;;;;;;7.00;6.50;;;18.00;64.40;;;;;;5086096;28;20197;-86
2022/05/08 08:22:44;;;;;;;7.60;7.00;;;17.90;64.10;;;;;;5091050;28;20211;-85
2022/05/08 08:25:10;;;;;;;7.00;6.30;;;17.80;64.60;;;;;;5091646;28;20230;-86
2022/05/08 08:27:35;;;;;;;5.93;5.50;;;17.90;64.90;;;;;;5079758;28;20187;-86
2022/05/08 08:30:03;;;;;;;6.87;6.30;;;18.00;64.80;;;;;;5076526;28;20185;-84
2022/05/08 08:32:31;;;;;;;6.50;6.00;;;18.00;63.90;;;;;;5075416;28;20271;-84
2022/05/08 08:34:57;;;;;;;6.55;6.05;;;18.00;63.70;;;;;;5076345;28;20701;-84
2022/05/08 08:37:23;;;;;;;6.60;6.00;;;18.00;63.50;;;;;;5076867;28;20199;-84
2022/05/08 08:39:49;;;;;;;6.75;6.15;;;18.20;62.90;;;;;;5079186;28;20255;-84
2022/05/08 08:42:29;;;;;;;7.05;6.35;;;18.40;62.70;;;;;;5055713;28;20214;-84
2022/05/08 08:47:54;;;;;;;7.32;6.65;;;18.70;60.90;;;;;;5076191;28;20263;-84
2022/05/08 08:50:24;;;;;;;6.38;5.88;;;18.70;60.20;;;;;;5075567;28;20194;-84
2022/05/08 08:52:50;;;;;;;9.20;5.70;;;19.00;60.40;;;;;;5068501;28;20195;-84
2022/05/08 08:55:17;;;;;;;7.95;5.50;;;19.20;59.00;;;;;;5069184;28;20204;-84
2022/05/08 08:57:44;;;;;;;5.72;5.25;;;19.40;59.10;;;;;;5056820;28;20217;-84
2022/05/08 09:00:10;;;;;;;9.50;6.40;;;19.70;58.80;;;;;;5074566;28;20210;-84
2022/05/08 09:02:36;;;;;;;7.18;5.15;;;19.70;57.40;;;;;;5059652;28;20316;-83
2022/05/08 09:05:04;;;;;;;6.57;5.97;;;19.70;57.00;;;;;;5076078;28;20206;-84
2022/05/08 09:07:50;;;;;;;6.20;5.70;;;19.80;57.20;;;;;;5082191;28;20843;-84
2022/05/08 09:10:24;;;;;;;6.40;5.80;;;20.00;57.50;;;;;;5064909;28;20187;-84
2022/05/08 09:12:52;;;;;;;6.88;5.93;;;20.30;55.00;;;;;;5071580;28;20258;-84
2022/05/08 09:15:23;;;;;;;6.38;5.88;;;20.30;55.30;;;;;;5070664;28;20211;-84
2022/05/08 09:17:52;;;;;;;7.13;6.43;;;20.30;55.00;;;;;;5065964;28;20199;-84
2022/05/08 09:20:26;;;;;;;7.18;6.53;;;20.20;55.60;;;;;;5053515;28;20248;-84
2022/05/08 09:23:21;;;;;;;6.75;6.15;;;20.30;53.80;;;;;;5086863;28;20305;-84
2022/05/08 09:25:54;;;;;;;7.78;6.68;;;20.70;53.40;;;;;;5059214;28;20219;-84
2022/05/08 09:28:29;;;;;;;6.50;5.95;;;20.70;53.20;;;;;;5076118;28;20179;-84
2022/05/08 09:30:54;;;;;;;6.82;6.22;;;20.80;53.50;;;;;;5037213;28;20178;-84
2022/05/08 09:33:24;;;;;;;6.38;5.82;;;20.90;52.30;;;;;;5068232;28;20195;-84
2022/05/08 09:35:49;;;;;;;7.55;6.68;;;21.00;54.20;;;;;;5056375;28;20203;-84
2022/05/08 09:38:15;;;;;;;7.18;6.65;;;21.30;54.50;;;;;;5067458;28;20197;-84
2022/05/08 09:40:41;;;;;;;7.55;6.72;;;21.50;52.30;;;;;;5055495;28;20189;-85
2022/05/08 09:43:27;;;;;;;8.20;7.07;;;21.60;53.50;;;;;;5072482;28;20351;-84
2022/05/08 09:45:59;;;;;;;6.93;6.32;;;21.80;49.80;;;;;;5075725;28;20275;-85
2022/05/08 09:48:33;;;;;;;7.82;6.97;;;21.90;48.90;;;;;;5071447;28;20186;-84
2022/05/08 09:51:05;;;;;;;7.65;6.95;;;22.10;48.60;;;;;;5065572;28;20603;-84
2022/05/08 09:53:32;;;;;;;6.45;5.93;;;22.20;49.40;;;;;;5078551;28;20192;-84
2022/05/08 09:55:59;;;;;;;6.95;6.45;;;22.40;50.20;;;;;;5100993;28;20207;-84
2022/05/08 09:58:26;;;;;;;7.07;6.53;;;22.40;46.80;;;;;;5082659;28;20198;-84
2022/05/08 10:00:52;;;;;;;6.70;6.10;;;22.60;48.50;;;;;;5090313;28;20215;-84
2022/05/08 10:03:19;;;;;;;7.45;6.85;;;22.70;47.90;;;;;;5090511;28;20207;-84
2022/05/08 10:05:46;;;;;;;7.60;6.90;;;22.60;48.80;;;;;;5075869;28;20575;-84
2022/05/08 10:08:17;;;;;;;7.32;6.53;;;22.40;48.20;;;;;;5086493;28;20220;-84
2022/05/08 10:14:10;;;;;;;7.45;6.63;;;22.80;48.20;;;;;;5069328;28;20249;-84
2022/05/08 10:16:48;;;;;;;7.15;6.60;;;23.10;46.30;;;;;;5065929;28;20257;-84
2022/05/08 10:19:19;;;;;;;9.02;6.78;;;22.90;47.00;;;;;;5082474;28;20202;-84
2022/05/08 10:22:00;;;;;;;6.88;6.38;;;23.00;45.40;;;;;;5070124;28;20186;-84
2022/05/08 10:24:40;;;;;;;6.57;5.97;;;23.00;45.90;;;;;;5075711;28;20225;-84
2022/05/08 10:27:16;;;;;;;7.13;6.60;;;23.20;47.20;;;;;;5072467;28;20182;-84
2022/05/08 10:29:48;;;;;;;6.63;6.13;;;23.20;46.30;;;;;;5049238;28;20184;-84
2022/05/08 10:32:34;;;;;;;6.63;6.00;;;22.80;47.60;;;;;;5081330;28;20543;-84
2022/05/08 10:35:18;;;;;;;7.10;6.60;;;23.00;46.70;;;;;;5074302;28;20210;-84
2022/05/08 10:37:50;;;;;;;7.38;6.68;;;23.30;45.20;;;;;;5079600;28;20258;-85
2022/05/08 10:40:31;;;;;;;7.28;6.63;;;23.50;44.10;;;;;;5074102;28;20203;-84
2022/05/08 10:43:01;;;;;;;11.35;6.78;;;23.60;43.80;;;;;;5038132;28;20203;-85
2022/05/08 10:45:37;;;;;;;6.95;6.35;;;23.70;43.10;;;;;;5081699;28;20211;-84
2022/05/08 10:48:08;;;;;;;7.25;5.90;;;23.80;43.50;;;;;;5082845;28;20171;-84
2022/05/08 10:50:35;;;;;;;6.70;6.20;;;23.50;43.30;;;;;;5090022;28;20252;-84
2022/05/08 10:53:01;;;;;;;6.20;5.70;;;23.60;44.20;;;;;;5079491;28;20278;-85
2022/05/08 10:55:27;;;;;;;6.40;5.70;;;23.90;42.90;;;;;;5085587;28;20282;-84
2022/05/08 10:57:54;;;;;;;6.43;5.88;;;24.10;41.80;;;;;;5072402;28;20528;-84
2022/05/08 11:00:21;;;;;;;6.50;5.65;;;24.10;42.10;;;;;;5072298;28;20517;-84
2022/05/08 11:02:51;;;;;;;6.20;5.60;;;24.10;42.10;;;;;;5073457;28;20208;-84
2022/05/08 11:05:19;;;;;;;6.45;5.85;;;24.10;42.00;;;;;;5072605;28;20238;-84
2022/05/08 11:07:56;;;;;;;6.75;6.20;;;23.90;42.90;;;;;;5082106;28;20184;-84
2022/05/08 11:10:25;;;;;;;6.28;5.78;;;23.90;43.70;;;;;;5070948;28;20195;-84
2022/05/08 11:13:02;;;;;;;6.38;5.93;;;23.90;42.00;;;;;;5079939;28;20191;-85
2022/05/08 11:15:28;;;;;;;6.13;5.63;;;24.20;41.30;;;;;;5056110;28;20885;-84
2022/05/08 11:18:10;;;;;;;7.47;5.90;;;24.40;40.90;;;;;;5083396;28;20206;-85
2022/05/08 11:20:37;;;;;;;6.65;6.05;;;24.60;39.90;;;;;;5082215;28;20229;-84
2022/05/08 11:23:04;;;;;;;6.85;6.13;;;24.30;39.50;;;;;;5072952;28;20294;-85
2022/05/08 11:25:33;;;;;;;5.68;5.22;;;24.40;41.00;;;;;;5078285;28;20207;-85
2022/05/08 11:28:00;;;;;;;5.63;5.13;;;24.40;39.10;;;;;;5080521;28;20187;-85
2022/05/08 11:30:35;;;;;;;6.40;4.90;;;24.60;38.30;;;;;;5082538;28;20238;-84
2022/05/08 11:36:04;;;;;;;6.00;5.60;;;25.20;36.00;;;;;;5077256;28;20222;-85
2022/05/08 11:38:55;;;;;;;5.03;4.63;;;25.50;35.10;;;;;;5078627;28;20182;-85
2022/05/08 11:41:32;;;;;;;5.85;5.35;;;25.90;36.60;;;;;;5068360;28;20636;-85
2022/05/08 11:44:02;;;;;;;7.40;5.20;;;26.10;35.60;;;;;;5075724;28;20305;-84
2022/05/08 11:46:38;;;;;;;5.55;5.18;;;26.30;33.40;;;;;;5067542;28;20567;-84
2022/05/08 11:49:21;;;;;;;5.95;5.35;;;26.50;32.30;;;;;;5070790;28;20203;-85
2022/05/08 11:51:48;;;;;;;4.57;4.18;;;26.80;31.10;;;;;;5067830;28;20183;-85
2022/05/08 11:54:38;;;;;;;4.93;4.18;;;26.70;30.90;;;;;;5066472;28;20236;-84
2022/05/08 11:57:13;;;;;;;7.53;4.18;;;26.60;29.60;;;;;;5064461;28;20187;-85
2022/05/08 11:59:41;;;;;;;4.78;4.38;;;26.30;30.00;;;;;;5085009;28;20232;-84
2022/05/08 12:02:07;;;;;;;5.63;3.88;;;26.60;30.30;;;;;;5072769;28;20235;-84
2022/05/08 12:04:36;;;;;;;5.35;4.32;;;26.70;29.40;;;;;;5075841;28;20210;-84
2022/05/08 12:07:08;;;;;;;4.45;4.07;;;26.40;29.80;;;;;;5070734;28;20203;-84
2022/05/08 12:09:49;;;;;;;5.18;4.30;;;26.50;30.60;;;;;;5065958;28;20180;-84
2022/05/08 12:12:25;;;;;;;5.28;4.43;;;26.60;31.20;;;;;;5079432;28;20237;-84
2022/05/08 12:14:53;;;;;;;3.90;3.60;;;26.30;29.80;;;;;;5060777;28;20210;-84
2022/05/08 12:17:19;;;;;;;4.72;3.70;;;26.30;29.10;;;;;;5083864;28;20829;-84
2022/05/08 12:19:53;;;;;;;4.32;3.92;;;26.50;29.10;;;;;;5051465;28;20227;-85
2022/05/08 12:22:27;;;;;;;5.05;4.07;;;26.60;29.80;;;;;;5067729;28;20286;-83
2022/05/08 12:24:53;;;;;;;4.97;4.57;;;26.70;29.30;;;;;;5069041;28;20203;-85
2022/05/08 12:27:20;;;;;;;4.53;4.13;;;27.10;30.20;;;;;;5072401;28;20184;-86
2022/05/08 12:29:46;;;;;;;4.68;4.32;;;27.00;30.00;;;;;;5055135;28;20230;-86
2022/05/08 12:32:16;;;;;;;5.07;4.07;;;26.80;29.80;;;;;;5078157;28;20593;-85
2022/05/08 12:34:43;;;;;;;4.97;4.50;;;26.70;30.30;;;;;;5078452;28;20214;-85
2022/05/08 12:37:10;;;;;;;5.35;4.95;;;27.00;31.00;;;;;;5079743;28;20183;-84
2022/05/08 12:39:36;;;;;;;5.30;4.78;;;27.30;31.50;;;;;;5071815;28;20183;-83
2022/05/08 12:42:06;;;;;;;5.32;4.82;;;27.50;31.30;;;;;;5084278;28;20206;-84
2022/05/08 12:44:33;;;;;;;7.03;4.60;;;27.80;30.70;;;;;;5076421;28;20199;-85
2022/05/08 12:46:59;;;;;;;5.00;4.47;;;27.70;30.20;;;;;;5083363;28;20205;-84
2022/05/08 12:49:25;;;;;;;5.53;4.80;;;28.00;30.40;;;;;;5072575;28;21782;-85
2022/05/08 12:51:51;;;;;;;5.00;4.60;;;27.80;30.60;;;;;;5072864;28;20175;-85
2022/05/08 12:54:17;;;;;;;7.25;4.78;;;28.20;30.00;;;;;;5079983;28;20211;-84
2022/05/08 12:56:44;;;;;;;5.10;4.57;;;28.50;29.50;;;;;;5082691;28;20292;-85
2022/05/08 13:01:54;;;;;;;5.65;4.90;;;28.80;29.50;;;;;;5085379;28;20186;-85
2022/05/08 13:04:20;;;;;;;5.60;5.10;;;28.50;29.80;;;;;;5081643;28;20183;-84
2022/05/08 13:06:46;;;;;;;5.30;4.90;;;28.80;29.90;;;;;;5072939;28;20291;-84
2022/05/08 13:09:12;;;;;;;5.75;5.20;;;28.90;29.90;;;;;;5073027;28;20183;-84
2022/05/08 13:11:38;;;;;;;5.85;4.85;;;28.80;29.50;;;;;;5077820;28;20180;-83
2022/05/08 13:14:05;;;;;;;5.05;4.68;;;28.60;30.00;;;;;;5069117;28;20176;-84